createdAt,value
2022-07-28T00:04:08.461Z,15.52
2022-07-28T00:09:10.012Z,15.51
2022-07-28T00:14:11.867Z,15.63
2022-07-28T00:19:14.054Z,15.64
2022-07-28T00:24:15.740Z,15.16
2022-07-28T00:29:17.945Z,15.33
2022-07-28T00:34:19.488Z,15.34
2022-07-28T00:39:28.132Z,15.14
2022-07-28T00:44:29.691Z,15.11
2022-07-28T00:49:31.154Z,14.69
2022-07-28T00:54:33.469Z,15.14
2022-07-28T00:59:34.952Z,15.26
2022-07-28T01:04:36.464Z,15.33
2022-07-28T01:10:16.675Z,15.17
2022-07-28T01:15:37.928Z,14.94
2022-07-28T01:20:47.167Z,14.99
2022-07-28T01:26:23.719Z,14.99
2022-07-28T01:31:28.058Z,14.87
2022-07-28T01:36:33.567Z,14.90
2022-07-28T01:41:36.471Z,14.66
2022-07-28T01:46:39.069Z,14.49
2022-07-28T01:51:42.163Z,14.55
2022-07-28T01:56:44.556Z,14.49
2022-07-28T02:01:48.521Z,14.50
2022-07-28T02:06:53.951Z,14.35
2022-07-28T02:11:56.339Z,14.10
2022-07-28T02:17:00.771Z,13.82
2022-07-28T02:22:05.043Z,14.14
2022-07-28T02:27:18.446Z,14.48
2022-07-28T02:32:29.361Z,13.93
2022-07-28T02:37:40.251Z,14.18
2022-07-28T02:42:46.200Z,13.93
2022-07-28T02:47:51.995Z,13.71
2022-07-28T02:52:57.987Z,13.95
2022-07-28T02:58:00.654Z,13.30
2022-07-28T03:03:08.375Z,13.75
2022-07-28T03:08:10.465Z,13.56
2022-07-28T03:13:12.144Z,13.36
2022-07-28T03:18:13.702Z,13.21
2022-07-28T03:23:16.255Z,13.25
2022-07-28T03:28:21.347Z,13.03
2022-07-28T03:33:23.442Z,13.31
2022-07-28T03:38:39.054Z,13.45
2022-07-28T03:43:41.067Z,13.46
2022-07-28T03:48:42.730Z,13.46
2022-07-28T03:53:44.686Z,13.47
2022-07-28T03:58:46.157Z,13.69
2022-07-28T04:03:47.823Z,13.53
2022-07-28T04:08:49.285Z,13.66
2022-07-28T04:13:50.754Z,13.66
2022-07-28T04:18:52.326Z,13.65
2022-07-28T04:23:57.276Z,13.70
2022-07-28T04:29:03.342Z,13.70
2022-07-28T04:34:05.172Z,13.75
2022-07-28T04:39:06.705Z,13.74
2022-07-28T04:44:09.292Z,14.16
2022-07-28T04:49:10.894Z,14.26
2022-07-28T04:54:12.709Z,14.35
2022-07-28T04:59:14.427Z,14.17
2022-07-28T05:04:18.982Z,14.54
2022-07-28T05:09:21.146Z,14.74
2022-07-28T05:14:22.719Z,15.08
2022-07-28T05:19:24.312Z,15.30
2022-07-28T05:24:25.811Z,17.86
2022-07-28T05:29:35.180Z,17.01
2022-07-28T05:34:48.939Z,18.86
2022-07-28T05:39:50.452Z,24.78
2022-07-28T05:44:52.104Z,25.69
2022-07-28T05:49:53.688Z,19.77
2022-07-28T05:54:55.688Z,18.90
2022-07-28T05:59:57.125Z,19.58
2022-07-28T06:04:58.874Z,19.17
2022-07-28T06:10:00.379Z,20.56
2022-07-28T06:15:01.868Z,22.48
2022-07-28T06:20:04.101Z,24.60
2022-07-28T06:25:05.980Z,24.40
2022-07-28T06:30:08.523Z,24.32
2022-07-28T06:35:11.019Z,32.90
2022-07-28T06:40:13.725Z,27.93
2022-07-28T06:45:19.545Z,26.63
2022-07-28T06:50:25.715Z,27.15
2022-07-28T06:55:28.451Z,30.34
2022-07-28T07:00:36.946Z,33.52
2022-07-28T07:05:38.593Z,34.16
2022-07-28T07:10:40.054Z,35.56
2022-07-28T07:15:41.590Z,38.12
2022-07-28T07:20:43.109Z,36.32
2022-07-28T07:25:44.658Z,37.32
2022-07-28T07:30:46.265Z,38.38
2022-07-28T07:35:47.742Z,40.76
2022-07-28T07:40:49.182Z,41.02
2022-07-28T07:45:50.691Z,39.71
2022-07-28T07:50:54.195Z,39.01
2022-07-28T07:55:56.297Z,38.93
2022-07-28T08:00:57.866Z,38.22
2022-07-28T08:05:59.395Z,36.34
2022-07-28T08:11:01.633Z,35.60
2022-07-28T08:16:05.815Z,32.50
2022-07-28T08:21:07.334Z,29.54
2022-07-28T08:26:08.939Z,29.95
2022-07-28T08:31:10.519Z,32.15
2022-07-28T08:36:12.088Z,32.45
2022-07-28T08:41:20.156Z,30.19
2022-07-28T08:46:23.390Z,28.28
2022-07-28T08:51:28.218Z,28.31
2022-07-28T08:56:30.730Z,27.03
2022-07-28T09:01:38.946Z,27.17
2022-07-28T09:06:41.794Z,27.69
2022-07-28T09:11:43.482Z,27.78
2022-07-28T09:16:45.014Z,27.32
2022-07-28T09:21:47.095Z,27.02
2022-07-28T09:27:03.164Z,27.29
2022-07-28T09:32:05.893Z,27.70
2022-07-28T09:37:16.491Z,27.62
2022-07-28T09:42:21.371Z,27.25
2022-07-28T09:47:25.144Z,28.20
2022-07-28T09:52:36.427Z,27.90
2022-07-28T09:57:41.606Z,27.68
2022-07-28T10:02:50.128Z,28.02
2022-07-28T10:07:52.058Z,28.08
2022-07-28T10:13:05.122Z,27.94
2022-07-28T10:18:06.718Z,28.46
2022-07-28T10:23:10.774Z,27.57
2022-07-28T10:28:16.600Z,27.82
2022-07-28T10:33:18.496Z,27.57
2022-07-28T10:38:20.578Z,28.17
2022-07-28T10:43:23.547Z,28.10
2022-07-28T10:48:27.193Z,28.05
2022-07-28T10:54:03.475Z,28.54
2022-07-28T10:59:21.388Z,28.46
2022-07-28T11:04:45.218Z,27.72
2022-07-28T11:09:47.674Z,27.78
2022-07-28T11:14:49.315Z,27.90
2022-07-28T11:25:19.715Z,27.62
2022-07-28T11:30:27.536Z,28.14
2022-07-28T11:35:30.896Z,27.65
2022-07-28T11:40:42.211Z,27.72
2022-07-28T11:45:50.369Z,27.30
2022-07-28T11:51:03.115Z,26.76
2022-07-28T11:56:10.050Z,27.11
2022-07-28T12:01:20.152Z,26.85
2022-07-28T12:06:33.354Z,26.98
2022-07-28T12:11:39.482Z,26.90
2022-07-28T12:16:43.182Z,26.76
2022-07-28T12:21:50.191Z,26.64
2022-07-28T12:26:51.750Z,26.98
2022-07-28T12:31:56.276Z,27.43
2022-07-28T12:37:00.842Z,27.25
2022-07-28T12:42:03.952Z,27.02
2022-07-28T12:47:08.451Z,27.10
2022-07-28T12:52:23.053Z,26.99
2022-07-28T12:57:46.184Z,27.01
2022-07-28T13:02:52.249Z,26.95
2022-07-28T13:08:06.018Z,27.49
2022-07-28T13:13:07.749Z,27.17
2022-07-28T13:18:09.406Z,27.33
2022-07-28T13:23:10.829Z,27.28
2022-07-28T13:28:23.761Z,27.39
2022-07-28T13:33:25.378Z,27.20
2022-07-28T13:38:26.908Z,27.44
2022-07-28T13:43:36.376Z,27.44
2022-07-28T13:48:38.649Z,27.30
2022-07-28T13:54:00.626Z,27.21
2022-07-28T13:59:02.187Z,27.13
2022-07-28T14:04:04.306Z,26.88
2022-07-28T14:09:05.757Z,26.68
2022-07-28T14:14:07.696Z,26.92
2022-07-28T14:19:14.151Z,26.89
2022-07-28T14:24:17.686Z,26.84
2022-07-28T14:29:19.373Z,26.94
2022-07-28T14:34:20.846Z,26.74
2022-07-28T14:39:22.457Z,27.03
2022-07-28T14:44:24.724Z,27.06
2022-07-28T14:49:26.666Z,27.19
2022-07-28T14:54:28.897Z,27.10
2022-07-28T14:59:30.502Z,26.81
2022-07-28T15:04:32.301Z,26.99
2022-07-28T15:09:38.578Z,26.84
2022-07-28T15:14:43.691Z,26.58
2022-07-28T15:19:46.028Z,26.58
2022-07-28T15:24:47.507Z,26.47
2022-07-28T15:29:52.163Z,26.23
2022-07-28T15:34:54.019Z,26.20
2022-07-28T15:39:55.517Z,26.06
2022-07-28T15:45:00.815Z,26.25
2022-07-28T15:50:02.742Z,26.38
2022-07-28T15:55:04.639Z,26.24
2022-07-28T16:00:07.235Z,26.22
2022-07-28T16:05:11.877Z,26.18
2022-07-28T16:10:13.228Z,26.11
2022-07-28T16:15:14.760Z,26.26
2022-07-28T16:20:16.281Z,26.36
2022-07-28T16:25:18.304Z,25.95
2022-07-28T16:30:20.246Z,26.06
2022-07-28T16:35:21.758Z,25.95
2022-07-28T16:40:23.297Z,26.03
2022-07-28T16:45:24.892Z,25.83
2022-07-28T16:50:33.127Z,25.87
2022-07-28T16:55:34.795Z,25.81
2022-07-28T17:00:36.363Z,25.70
2022-07-28T17:05:37.874Z,25.67
2022-07-28T17:10:39.368Z,25.67
2022-07-28T17:15:40.992Z,25.60
2022-07-28T17:20:42.598Z,25.35
2022-07-28T17:25:59.612Z,25.15
2022-07-28T17:31:05.656Z,25.20
2022-07-28T17:36:07.695Z,24.99
2022-07-28T17:41:09.300Z,24.84
2022-07-28T17:46:11.277Z,24.77
2022-07-28T17:51:12.899Z,24.82
2022-07-28T17:56:14.515Z,24.74
2022-07-28T18:01:16.086Z,24.76
2022-07-28T18:06:17.806Z,24.68
2022-07-28T18:11:19.352Z,24.69
2022-07-28T18:16:21.229Z,24.65
2022-07-28T18:21:22.805Z,24.58
2022-07-28T18:26:24.307Z,24.51
2022-07-28T18:31:25.825Z,24.51
2022-07-28T18:36:27.402Z,24.43
2022-07-28T18:41:28.979Z,24.34
2022-07-28T18:46:36.264Z,24.20
2022-07-28T18:51:37.827Z,24.18
2022-07-28T18:56:39.295Z,24.07
2022-07-28T19:01:40.790Z,23.95
2022-07-28T19:06:42.443Z,23.94
2022-07-28T19:11:46.287Z,23.83
2022-07-28T19:16:48.174Z,23.69
2022-07-28T19:21:49.685Z,23.56
2022-07-28T19:26:51.437Z,23.36
2022-07-28T19:31:53.325Z,23.15
2022-07-28T19:36:54.834Z,23.05
2022-07-28T19:41:56.319Z,22.78
2022-07-28T19:46:57.836Z,22.76
2022-07-28T19:51:59.297Z,22.72
2022-07-28T19:57:00.866Z,22.69
2022-07-28T20:02:05.119Z,22.65
2022-07-28T20:07:06.717Z,22.53
2022-07-28T20:12:08.599Z,22.54
2022-07-28T20:17:20.096Z,22.46
2022-07-28T20:22:32.670Z,22.37
2022-07-28T20:27:40.143Z,22.35
2022-07-28T20:32:42.485Z,22.26
2022-07-28T20:37:43.981Z,22.21
2022-07-28T20:42:49.808Z,22.09
2022-07-28T20:47:54.213Z,22.03
2022-07-28T20:52:55.806Z,21.78
2022-07-28T20:57:57.340Z,21.67
2022-07-28T21:02:58.893Z,21.66
2022-07-28T21:08:06.384Z,21.23
2022-07-28T21:13:11.086Z,21.10
2022-07-28T21:18:12.560Z,20.75
2022-07-28T21:23:14.122Z,20.69
2022-07-28T21:28:15.663Z,20.86
2022-07-28T21:33:22.923Z,20.91
2022-07-28T21:38:24.826Z,20.67
2022-07-28T21:43:26.321Z,20.47
2022-07-28T21:48:29.306Z,20.64
2022-07-28T21:53:30.812Z,20.46
2022-07-28T21:58:32.311Z,20.38
2022-07-28T22:03:34.798Z,20.19
2022-07-28T22:08:36.678Z,20.32
2022-07-28T22:13:38.189Z,20.07
2022-07-28T22:18:41.485Z,19.99
2022-07-28T22:23:42.950Z,19.97
2022-07-28T22:28:44.415Z,20.16
2022-07-28T22:33:46.045Z,20.04
2022-07-28T22:38:47.589Z,19.97
2022-07-28T22:43:49.069Z,19.89
2022-07-28T22:48:50.627Z,20.06
2022-07-28T22:53:52.218Z,19.67
2022-07-28T22:58:53.720Z,19.88
2022-07-28T23:03:55.274Z,19.86
2022-07-28T23:08:56.842Z,19.94
2022-07-28T23:13:58.401Z,19.86
2022-07-28T23:18:59.985Z,19.66
2022-07-28T23:24:01.430Z,19.55
2022-07-28T23:29:03.010Z,19.53
2022-07-28T23:34:04.600Z,19.55
2022-07-28T23:39:06.199Z,19.45
2022-07-28T23:44:07.738Z,19.58
2022-07-28T23:49:09.338Z,19.44
2022-07-28T23:54:10.983Z,19.39
2022-07-28T23:59:16.026Z,19.59
